Latest Weather Observations for Parndana

IDS60801

Issued at 11:01 am CST Sunday 30 August 2015 (issued every 30 minutes, with the page automatically refreshed every 10 minutes)

About weather observations | Map of weather stations | Latest weather observations for SA | Other Formats
Station Details ID: 022843 Name: PARNDANA CFS AWS Lat: -35.79 Lon: 137.25 Height: 165.0 m
Data from the previous 72 hours. | See also: Recent months at Parndana
Date/Time
CST
Temp
°C
App
Temp
°C
Dew
Point
Rel
Hum
%
Delta-T
°C
Wind Press
QNH
hPa
Press
MSL
hPa
Rain
since 9 am
mm
Dir
 
Spd
km/h
Gust
km/h
Spd
kts
Gust
kts
30/11:00am 11.0 7.7 6.4 73 2.2 ENE 13 20 7 11 - - 0.0
30/10:30am 10.9 7.2 6.5 74 2.1 NE 15 24 8 13 - - 0.0
30/10:00am 10.4 6.3 6.0 74 2.1 NE 17 24 9 13 - - 0.0
30/09:30am 9.7 5.1 5.7 76 1.8 ENE 19 24 10 13 - - 0.0
30/09:00am 9.4 5.7 6.3 81 1.4 ENE 15 17 8 9 - - 0.0
30/08:30am 8.3 5.7 5.9 85 1.1 ENE 9 15 5 8 - - 0.0
30/08:00am 6.3 3.8 4.6 89 0.7 E 7 7 4 4 - - 0.0
30/07:30am 4.4 1.6 2.9 90 0.6 ENE 7 9 4 5 - - 0.0
30/07:00am 3.5 0.5 2.3 92 0.5 ENE 7 9 4 5 - - 0.0
30/06:30am 3.3 0.0 2.3 93 0.4 ENE 9 11 5 6 - - 0.0
30/06:00am 4.0 0.7 2.7 91 0.5 E 9 11 5 6 - - 0.0
30/05:30am 4.7 2.0 3.5 92 0.5 E 7 9 4 5 - - 0.0
30/05:00am 4.6 1.1 3.3 91 0.5 E 11 13 6 7 - - 0.0
30/04:30am 4.2 0.9 2.7 90 0.6 E 9 11 5 6 - - 0.0
30/04:00am 4.6 1.4 3.1 90 0.6 E 9 11 5 6 - - 0.0
30/03:30am 4.4 0.8 2.8 89 0.7 E 11 13 6 7 - - 0.0
30/03:00am 4.4 0.8 2.8 89 0.7 E 11 15 6 8 - - 0.0
30/02:30am 4.2 0.5 2.4 88 0.7 ENE 11 13 6 7 - - 0.0
30/02:00am 4.4 0.6 1.9 84 1.0 E 11 15 6 8 - - 0.0
30/01:30am 4.9 1.5 1.7 80 1.3 E 9 11 5 6 - - 0.0
30/01:00am 4.7 1.2 1.4 79 1.3 ESE 9 11 5 6 - - 0.0
30/12:30am 5.1 2.0 1.4 77 1.5 ESE 7 9 4 5 - - 0.0
30/12:00am 4.7 1.6 1.2 78 1.4 ESE 7 9 4 5 - - 0.0
 
Date/Time
CST
Temp
°C
App
Temp
°C
Dew
Point
Rel
Hum
%
Delta-T
°C
Wind Press
QNH
hPa
Press
MSL
hPa
Rain
since 9 am
mm
Dir
 
Spd
km/h
Gust
km/h
Spd
kts
Gust
kts
29/11:30pm 4.3 1.1 1.0 79 1.3 SE 7 9 4 5 - - 0.0
29/11:00pm 4.5 1.3 1.0 78 1.4 ESE 7 11 4 6 - - 0.0
29/10:30pm 4.8 1.8 1.7 80 1.2 SE 7 13 4 7 - - 0.0
29/10:00pm 4.5 1.6 1.5 81 1.2 SE 6 9 3 5 - - 0.0
29/09:30pm 3.3 0.2 1.5 88 0.7 SSW 7 9 4 5 - - 0.0
29/09:00pm 3.9 1.3 1.1 82 1.1 SE 4 6 2 3 - - 0.0
29/08:30pm 3.9 0.9 0.9 81 1.2 SSE 6 6 3 3 - - 0.0
29/08:00pm 4.7 1.8 1.4 79 1.3 SE 6 6 3 3 - - 0.0
29/07:30pm 4.7 1.6 1.4 79 1.3 SE 7 7 4 4 - - 0.0
29/07:00pm 4.2 0.8 1.6 83 1.0 SE 9 11 5 6 - - 0.0
29/06:30pm 4.3 0.5 1.5 82 1.1 SE 11 13 6 7 - - 0.0
29/06:00pm 5.5 1.4 2.2 79 1.3 ESE 13 19 7 10 - - 0.0
29/05:30pm 7.5 2.7 2.6 71 2.1 ESE 17 24 9 13 - - 0.0
29/05:00pm 8.5 3.7 2.7 67 2.5 ESE 17 22 9 12 - - 0.0
29/04:30pm 9.2 4.1 3.0 65 2.7 ESE 19 24 10 13 - - 0.0
29/04:00pm 9.7 4.8 4.1 68 2.5 ESE 19 32 10 17 - - 0.0
29/03:30pm 10.1 5.1 3.8 65 2.8 ESE 19 26 10 14 - - 0.0
29/03:00pm 10.4 5.3 4.3 66 2.7 ESE 20 28 11 15 - - 0.0
29/02:30pm 10.9 6.0 5.0 67 2.7 ESE 20 28 11 15 - - 0.0
29/02:00pm 11.0 6.2 4.7 65 2.9 ESE 19 28 10 15 - - 0.0
29/01:30pm 10.6 5.7 4.1 64 2.9 ESE 19 26 10 14 - - 0.0
29/01:00pm 11.1 6.5 5.8 70 2.5 E 19 24 10 13 - - 0.0
29/12:30pm 11.0 6.8 5.7 70 2.5 E 17 24 9 13 - - 0.0
29/12:00pm 10.3 5.4 5.1 70 2.4 E 20 30 11 16 - - 0.0
29/11:30am 10.6 5.5 6.2 74 2.1 E 22 28 12 15 - - 0.0
29/11:00am 10.1 5.7 6.6 79 1.7 ENE 19 26 10 14 - - 0.0
29/10:30am 10.2 6.3 7.1 81 1.5 ENE 17 24 9 13 - - 0.0
29/10:00am 9.6 5.3 6.9 83 1.3 E 19 28 10 15 - - 0.0
29/09:30am 9.5 4.5 6.6 82 1.4 E 22 28 12 15 - - 0.0
29/09:00am 9.3 4.7 6.7 84 1.2 E 20 26 11 14 - - 1.4
29/08:30am 9.3 5.8 7.4 88 0.9 E 15 20 8 11 - - 1.4
29/08:00am 8.3 5.4 6.6 89 0.8 E 11 17 6 9 - - 1.4
29/07:30am 7.8 5.3 6.7 93 0.5 ENE 9 11 5 6 - - 1.4
29/07:00am 7.0 5.0 6.3 95 0.3 ENE 6 7 3 4 - - 1.4
29/06:30am 7.0 5.1 6.6 97 0.2 NE 6 9 3 5 - - 1.4
29/06:00am 7.5 5.5 7.2 98 0.1 ENE 7 11 4 6 - - 1.4
29/05:30am 7.6 4.9 7.5 99 0.0 SE 11 20 6 11 - - 1.2
29/05:00am 5.9 3.8 5.6 98 0.1 S 6 6 3 3 - - 1.2
29/04:30am 6.6 4.6 6.3 98 0.1 SSE 6 6 3 3 - - 1.2
29/04:00am 6.5 4.3 6.1 97 0.2 SSE 7 9 4 5 - - 1.0
29/03:30am 7.2 5.3 6.9 98 0.1 S 6 7 3 4 - - 1.0
29/03:00am 6.8 4.9 6.5 98 0.1 SSW 6 7 3 4 - - 1.0
29/02:30am 7.6 6.2 7.3 98 0.1 SW 4 6 2 3 - - 1.0
29/02:00am 7.5 5.7 7.1 97 0.2 SW 6 7 3 4 - - 1.0
29/01:30am 7.9 6.2 7.5 97 0.2 SW 6 6 3 3 - - 1.0
29/01:00am 8.3 7.1 7.9 97 0.2 SSW 4 6 2 3 - - 1.0
29/12:30am 8.4 6.8 8.0 97 0.2 S 6 7 3 4 - - 1.0
29/12:00am 8.3 6.7 7.9 97 0.2 S 6 7 3 4 - - 0.8
 
Date/Time
CST
Temp
°C
App
Temp
°C
Dew
Point
Rel
Hum
%
Delta-T
°C
Wind Press
QNH
hPa
Press
MSL
hPa
Rain
since 9 am
mm
Dir
 
Spd
km/h
Gust
km/h
Spd
kts
Gust
kts
28/11:30pm 7.7 6.3 7.1 96 0.3 WSW 4 6 2 3 - - 0.2
28/11:00pm 8.0 6.6 7.2 95 0.4 SSW 4 6 2 3 - - 0.2
28/10:30pm 8.1 6.6 7.0 93 0.5 SSW 4 6 2 3 - - 0.0
28/10:00pm 7.6 6.0 6.2 91 0.6 SW 4 6 2 3 - - 0.0
28/09:30pm 7.2 5.1 5.7 90 0.7 SW 6 6 3 3 - - 0.0
28/09:00pm 7.9 5.8 6.0 88 0.9 SSW 6 7 3 4 - - 0.0
28/08:30pm 7.8 6.1 5.9 88 0.9 S 4 4 2 2 - - 0.0
28/08:00pm 8.1 6.4 5.9 86 1.0 S 4 6 2 3 - - 0.0
28/07:30pm 8.1 6.1 6.1 87 0.9 SSE 6 7 3 4 - - 0.0
28/07:00pm 8.4 6.3 6.0 85 1.1 SSE 6 7 3 4 - - 0.0
28/06:30pm 9.0 6.8 6.3 83 1.3 SSE 7 9 4 5 - - 0.0
28/06:00pm 9.6 7.3 5.8 77 1.8 SE 7 9 4 5 - - 0.0
28/05:30pm 10.4 8.2 6.4 76 1.9 SE 7 9 4 5 - - 0.0
28/05:00pm 10.8 8.2 6.0 72 2.2 ESE 9 13 5 7 - - 0.0
28/04:30pm 11.1 7.8 4.8 65 2.9 ESE 11 15 6 8 - - 0.0
28/04:00pm 11.6 8.3 4.3 61 3.3 ESE 11 15 6 8 - - 0.0
28/03:30pm 11.3 7.4 5.4 67 2.7 SE 15 20 8 11 - - 0.0
28/03:00pm 11.7 9.1 4.0 59 3.5 SE 7 17 4 9 - - 0.0
28/02:30pm 11.3 7.5 4.1 61 3.2 SSE 13 17 7 9 - - 0.0
28/02:00pm 11.7 8.5 5.3 65 3.0 SE 11 17 6 9 - - 0.0
28/01:30pm 11.2 7.6 5.1 66 2.8 SSE 13 17 7 9 - - 0.0
28/01:00pm 11.2 7.7 5.5 68 2.7 SSE 13 17 7 9 - - 0.0
28/12:30pm 11.1 8.1 5.8 70 2.5 SE 11 15 6 8 - - 0.0
28/12:00pm 11.4 8.3 5.5 67 2.7 SE 11 15 6 8 - - 0.0
28/11:30am 11.6 8.4 5.3 65 2.9 ESE 11 17 6 9 - - 0.0
28/11:00am 11.3 7.5 4.1 61 3.2 ESE 13 20 7 11 - - 0.0
28/10:30am 10.8 6.3 4.3 64 2.9 SSE 17 22 9 12 - - 0.0
28/10:00am 10.7 6.0 5.3 69 2.5 SE 19 24 10 13 - - 0.0
28/09:30am 10.3 6.1 5.5 72 2.2 SSE 17 22 9 12 - - 0.0
28/09:00am 10.6 7.3 6.4 75 2.0 SSE 13 17 7 9 - - 2.2
28/08:30am 10.1 7.4 5.5 73 2.1 SSE 9 13 5 7 - - 2.2
28/08:00am 9.0 6.8 5.2 77 1.7 SSE 6 9 3 5 - - 2.2
28/07:30am 7.2 4.6 4.3 82 1.3 SSW 7 7 4 4 - - 2.2
28/07:00am 7.4 4.7 3.8 78 1.6 SSE 7 9 4 5 - - 2.2
28/06:30am 7.7 5.4 4.8 82 1.3 S 6 7 3 4 - - 2.2
28/06:00am 8.1 5.3 5.2 82 1.3 SSW 9 11 5 6 - - 2.2
28/05:30am 8.3 6.0 5.6 83 1.2 SSE 7 11 4 6 - - 2.2
28/05:00am 8.2 6.0 6.0 86 1.0 S 7 9 4 5 - - 2.2
28/04:30am 8.4 6.2 6.2 86 1.0 S 7 9 4 5 - - 2.2
28/04:00am 8.1 6.1 6.9 92 0.6 SSW 7 9 4 5 - - 2.2
28/03:30am 7.9 6.1 7.1 95 0.4 S 6 6 3 3 - - 2.2
28/03:00am 8.0 7.3 7.1 94 0.4 CALM 0 0 0 0 - - 2.2
28/02:30am 7.9 7.2 6.8 93 0.5 CALM 0 4 0 2 - - 2.2
28/02:00am 7.9 6.4 6.8 93 0.5 SSE 4 9 2 5 - - 2.2
28/01:30am 8.1 6.1 6.9 92 0.6 SSE 7 11 4 6 - - 2.2
28/01:00am 8.5 6.2 7.3 92 0.6 SE 9 13 5 7 - - 2.2
28/12:30am 8.4 6.0 7.0 91 0.7 SSE 9 13 5 7 - - 2.2
28/12:00am 8.4 5.2 6.7 89 0.8 SSE 13 15 7 8 - - 2.2
 
Date/Time
CST
Temp
°C
App
Temp
°C
Dew
Point
Rel
Hum
%
Delta-T
°C
Wind Press
QNH
hPa
Press
MSL
hPa
Rain
since 9 am
mm
Dir
 
Spd
km/h
Gust
km/h
Spd
kts
Gust
kts
27/11:30pm 8.3 5.5 7.1 92 0.6 SSE 11 15 6 8 - - 2.2
27/11:00pm 8.4 5.2 6.9 90 0.7 SSE 13 19 7 10 - - 2.2
27/10:30pm 8.4 5.6 7.0 91 0.7 S 11 20 6 11 - - 2.2
27/10:00pm 8.2 6.2 7.0 92 0.6 SSW 7 11 4 6 - - 2.2
27/09:30pm 8.4 6.7 7.5 94 0.4 SSE 6 7 3 4 - - 2.2
27/09:00pm 8.4 7.1 7.6 95 0.4 SSE 4 6 2 3 - - 2.2
27/08:30pm 8.6 6.4 7.7 94 0.4 SSE 9 11 5 6 - - 2.2
27/08:00pm 8.5 5.0 7.3 92 0.6 SSW 15 22 8 12 - - 2.2
27/07:30pm 8.6 4.9 8.0 96 0.3 SSE 17 24 9 13 - - 2.2
27/07:00pm 8.7 6.1 7.9 95 0.4 SSW 11 17 6 9 - - 1.8
27/06:30pm 8.4 5.7 7.5 94 0.4 S 11 15 6 8 - - 1.6
27/06:00pm 8.6 4.4 7.5 93 0.5 S 19 30 10 16 - - 1.6
27/05:30pm 9.5 6.1 7.8 89 0.8 S 15 20 8 11 - - 1.0
27/05:00pm 9.6 5.9 8.0 90 0.8 SSE 17 26 9 14 - - 1.0
27/04:30pm 10.5 6.8 8.1 85 1.2 S 17 26 9 14 - - 0.6
27/04:00pm 10.2 4.9 8.5 89 0.8 S 26 39 14 21 - - 0.6
27/03:30pm 11.4 6.4 7.9 79 1.7 S 24 35 13 19 - - 0.4
27/03:00pm 11.9 6.5 8.2 78 1.8 S 26 32 14 17 - - 0.4
27/02:30pm 11.5 6.5 8.0 79 1.7 S 24 35 13 19 - - 0.4
27/02:00pm 10.8 5.3 7.5 80 1.6 S 26 33 14 18 - - 0.4
27/01:30pm 11.2 6.6 9.6 90 0.8 SSW 24 37 13 20 - - 0.4
27/01:00pm 11.7 6.9 8.7 82 1.5 SSE 24 33 13 18 - - 0.4
27/12:30pm 10.3 5.0 8.6 89 0.8 S 26 43 14 23 - - 0.4
27/12:00pm 10.9 5.8 7.8 81 1.5 S 24 33 13 18 - - 0.4
27/11:30am 10.8 6.6 8.4 85 1.2 SSW 20 28 11 15 - - 0.4

Other Formats:

Comma delimited format used in spreadsheet applications
http://www.bom.gov.au/fwo/IDS60801/IDS60801.94807.axf

JavaScript Object Notation format (JSON) in row-major order
http://www.bom.gov.au/fwo/IDS60801/IDS60801.94807.json